Jepson Prairie Reserve, California Weather observations

Data are for 10 minute period ending at time listed.
 Day   Time   Solar   Ave.   Ave.  Ave.  Vector  Max.   Baro.   Total    
  of    of     Rad.   Air    Rel.  Wind   Wind   Wind  Press.  Precip.   
Year   Day            Temp.  Hum.  Speed  Dir.   Gust                    
2014   (PST)  Kw/m2    F      %     mph   deg.    mph    mb.     in.     
-------------------------------------------------------------------------
 263    3:10   0.00   62.3    91   16.1   224    21.7   1008.8    0.00 
 263    3:20   0.00   62.1    91   15.8   226    21.1   1008.8    0.00 
 263    3:30   0.00   61.8    92   17.4   225    21.9   1008.8    0.00 
 263    3:40   0.00   61.7    92   16.2   224    20.3   1008.8    0.00 
 263    3:50   0.00   61.7    92   15.9   224    20.0   1008.8    0.00 
 263    4:00   0.00   61.6    92   15.6   222    20.5   1008.8    0.00 
 263    4:10   0.00   61.6    92   15.7   223    21.1   1008.8    0.00 
 263    4:20   0.00   61.5    92   15.2   227    19.0   1009.1    0.00 
 263    4:30   0.00   61.4    92   14.5   230    18.5   1009.1    0.00 
 263    4:40   0.00   61.3    92   14.7   234    18.1   1009.1    0.00 
 263    4:50   0.00   61.1    92   14.9   231    18.6   1009.1    0.00 
 263    5:00   0.00   61.0    92   14.9   229    19.1   1009.1    0.00 
 263    5:10   0.00   60.8    93   14.1   224    18.2   1009.1    0.00 
 263    5:20   0.00   60.8    93   14.8   224    20.2   1009.5    0.00 
 263    5:30   0.00   60.8    93   14.9   226    19.2   1009.5    0.00 
 263    5:40   0.00   60.6    93   14.5   224    18.7   1009.5    0.00 
 263    5:50   0.00   60.5    93   14.8   227    19.1   1009.5    0.00 
 263    6:00   0.01   60.5    93   14.0   229    18.1   1009.5    0.00 
 263    6:10   0.01   60.4    94   13.0   226    16.4   1009.8    0.00 
 263    6:20   0.01   60.4    94   12.2   221    14.9   1009.8    0.00 
 263    6:30   0.04   60.4    94   12.3   219    15.1   1010.2    0.00 
 263    6:40   0.07   60.7    94   11.9   214    16.7   1010.2    0.00 
 263    6:50   0.10   61.2    93   13.1   212    16.5   1010.5    0.00 
 263    7:00   0.12   61.8    92   12.6   218    15.8   1010.5    0.00 
 263    7:10   0.16   62.3    91   13.3   217    16.9   1010.5    0.00 
 263    7:20   0.20   62.9    89   12.8   221    16.7   1010.5    0.00 
 263    7:30   0.23   63.7    87   14.2   224    18.1   1010.8    0.00 
 263    7:40   0.26   64.6    84   13.2   226    16.4   1010.8    0.00 
 263    7:50   0.30   65.3    82   14.4   227    17.8   1010.8    0.00 
 263    8:00   0.33   66.1    80   13.8   218    16.8   1010.8    0.00 
 263    8:10   0.36   66.6    78   14.2   219    16.6   1010.8    0.00 
 263    8:20   0.39   67.5    76   13.8   227    18.1   1010.8    0.00 
 263    8:30   0.42   67.9    74   15.1   229    18.6   1010.8    0.00 
 263    8:40   0.45   68.5    72   14.9   225    18.3   1010.8    0.00 
 263    8:50   0.48   69.3    68   14.8   224    18.0   1010.8    0.00 
 263    9:00   0.47   70.3    66   13.6   229    17.5   1011.2    0.00 
 263    9:10   0.47   70.3    66   14.5   234    17.4   1011.2    0.00 
 263    9:20   0.47   70.6    65   14.6   223    18.0   1011.2    0.00 
 263    9:30   0.57   71.2    63   14.8   226    18.7   1011.2    0.00 
 263    9:40   0.60   71.6    62   14.7   227    18.1   1011.2    0.00 
 263    9:50   0.62   72.1    62   13.6   230    17.5   1011.2    0.00 
 263   10:00   0.64   72.5    62   12.9   227    17.4   1011.2    0.00 
 263   10:10   0.66   73.3    59   12.8   230    17.7   1011.2    0.00 
 263   10:20   0.68   73.7    58   12.7   223    17.4   1011.2    0.00 
 263   10:30   0.69   74.5    56   13.3   217    18.0   1011.2    0.00 
 263   10:40   0.71   75.4    54   12.8   219    17.8   1010.8    0.00 
 263   10:50   0.72   75.7    55   13.4   218    17.5   1010.8    0.00 
 263   11:00   0.73   76.2    54   13.8   226    18.6   1010.8    0.00 
 263   11:10   0.74   76.3    54   14.3   222    20.4   1010.5    0.00 
 263   11:20   0.75   76.6    54   14.6   224    18.4   1010.5    0.00 
 263   11:30   0.75   76.9    54   13.9   230    18.4   1010.5    0.00 
 263   11:40   0.76   77.5    53   14.2   232    19.2   1010.2    0.00 
 263   11:50   0.76   77.7    53   14.9   238    19.7   1010.2    0.00 
 263   12:00   0.76   78.2    52   14.2   218    20.0   1009.8    0.00 
 263   12:10   0.76   78.7    50   14.6   218    19.3   1009.8    0.00 
 263   12:20   0.76   79.3    50   15.9   229    20.2   1009.5    0.00 
 263   12:30   0.75   80.0    48   14.9   210    18.9   1009.5    0.00 
 263   12:40   0.74   81.0    47   16.3   218    20.6   1009.1    0.00 
 263   12:50   0.74   81.6    46   17.5   220    23.2   1009.1    0.00 
 263   13:00   0.74   81.4    45   18.1   215    22.1   1009.1    0.00 
 263   13:10   0.72   82.1    45   18.0   219    22.4   1008.8    0.00 
 263   13:20   0.69   82.3    44   18.5   219    22.8   1008.8    0.00 
 263   13:30   0.67   82.5    43   19.2   223    22.9   1008.5    0.00 
 263   13:40   0.69   83.9    40   20.5   219    25.4   1008.5    0.00 
 263   13:50   0.68   84.2    39   20.5   213    26.0   1008.1    0.00 
 263   14:00   0.67   84.4    34   21.4   223    26.1   1008.1    0.00 
 263   14:10   0.65   83.9    36   21.5   218    26.7   1008.1    0.00 
 263   14:20   0.65   83.5    38   22.4   213    27.7   1007.8    0.00 
 263   14:30   0.66   83.6    38   23.2   217    27.4   1007.8    0.00 
 263   14:40   0.63   83.9    38   22.9   220    27.1   1007.8    0.00 
 263   14:50   0.52   83.7    41   21.6   219    25.5   1007.5    0.00 
 263   15:00   0.46   83.4    42   20.3   216    25.5   1007.5    0.00 
 263   15:10   0.47   83.8    40   21.1   221    27.4   1007.5    0.00 
 263   15:20   0.50   83.5    41   22.4   220    27.0   1007.5    0.00 
 263   15:30   0.51   82.9    42   23.7   214    29.0   1007.5    0.00 
 263   15:40   0.30   82.6    43   22.5   213    28.4   1007.5    0.00 
 263   15:50   0.41   81.8    44   23.0   214    28.2   1007.5    0.00 
 263   16:00   0.29   82.0    44   21.8   211    27.8   1007.1    0.00 
 263   16:10   0.26   80.7    44   22.8   218    29.8   1007.1    0.00 
 263   16:20   0.29   80.6    44   24.0   213    30.6   1007.1    0.00 
 263   16:30   0.25   80.1    44   23.4   216    28.1   1007.1    0.00 
 263   16:40   0.22   79.2    45   23.4   218    28.6   1007.1    0.00 
 263   16:50   0.19   78.3    47   23.0   215    27.5   1007.1    0.00 
 263   17:00   0.16   77.8    48   22.4   215    27.3   1007.1    0.00 
 263   17:10   0.14   76.9    49   24.6   214    29.4   1007.5    0.00 
 263   17:20   0.11   76.1    51   22.9   214    28.6   1007.8    0.00 
 263   17:30   0.09   75.1    53   24.1   215    29.5   1007.8    0.00 
 263   17:40   0.07   74.2    56   23.5   218    31.4   1007.8    0.00 
 263   17:50   0.07   73.1    58   25.4   219    31.8   1007.5    0.00 
 263   18:00   0.05   72.2    60   28.0   220    35.0   1007.8    0.00 
 263   18:10   0.03   71.3    62   26.2   217    34.3   1007.8    0.00 
 263   18:20   0.01   70.6    64   25.3   219    31.4   1008.5    0.00 
 263   18:30   0.00   70.0    66   24.3   214    30.5   1008.8    0.00 
 263   18:40   0.00   69.5    67   23.1   210    29.7   1009.5    0.00 
 263   18:50   0.00   69.1    68   19.5   207    25.0   1009.8    0.00 
 263   19:00   0.00   68.2    71   22.3   207    27.8   1009.1    0.00 
 263   19:10   0.00   67.6    73   23.3   212    28.8   1009.1    0.00 
 263   19:20   0.00   67.6    73   21.4   212    26.7   1009.1    0.00 
 263   19:30   0.00   67.2    73   22.6   220    31.1   1009.1    0.00 
 263   19:40   0.00   66.9    72   25.5   222    31.0   1008.5    0.00 
 263   19:50   0.00   66.4    72   24.2   226    31.2   1008.8    0.00 
 263   20:00   0.00   66.0    73   22.8   218    30.0   1009.5    0.00 
 263   20:10   0.00   65.5    74   24.5   217    31.4   1009.1    0.00 
 263   20:20   0.00   65.2    75   25.4   223    34.0   1009.1    0.00 
 263   20:30   0.00   64.8    76   26.3   220    34.0   1008.8    0.00 
 263   20:40   0.00   64.4    77   27.7   220    35.9   1008.8    0.00 
 263   20:50   0.00   64.2    77   27.8   220    35.8   1008.8    0.00 
 263   21:00   0.00   64.2    77   26.6   216    37.8   1009.1    0.00 
 263   21:10   0.00   64.1    78   25.6   215    32.1   1009.5    0.00 
 263   21:20   0.00   64.1    77   27.0   207    34.2   1009.5    0.00 
 263   21:30   0.00   64.1    77   25.9   206    32.3   1010.2    0.00 
 263   21:40   0.00   64.1    78   27.7   210    33.6   1009.8    0.00 
 263   21:50   0.00   63.9    78   29.8   217    37.0   1009.5    0.00 
 263   22:00   0.00   63.7    78   28.9   222    36.8   1009.5    0.00 
 263   22:10   0.00   64.0    77   28.6   216    36.4   1009.5    0.00 
 263   22:20   0.00   64.2    76   27.7   212    34.1   1009.8    0.00 
 263   22:30   0.00   64.0    76   25.6   213    34.1   1010.2    0.00 
 263   22:40   0.00   64.0    77   26.6   215    34.4   1009.8    0.00 
 263   22:50   0.00   63.7    77   30.0   218    38.9   1009.5    0.00 
 263   23:00   0.00   63.5    78   30.8   217    41.3   1009.1    0.00 
 263   23:10   0.00   63.2    79   30.0   212    39.1   1009.5    0.00 
 263   23:20   0.00   63.1    80   27.4   211    35.7   1009.5    0.00 
 263   23:30   0.00   63.0    80   28.6   213    36.9   1009.5    0.00 
 263   23:40   0.00   62.8    80   28.6   219    35.4   1009.5    0.00 
 263   23:50   0.00   62.7    81   28.8   219    36.6   1009.1    0.00 
 264    0:00   0.00   62.7    80   27.7   214    35.2   1009.1    0.00 
 264    0:10   0.00   62.7    80   28.5   209    35.7   1009.1    0.00 
 264    0:20   0.00   62.8    80   28.3   210    34.8   1009.5    0.00 
 264    0:30   0.00   62.8    80   24.6   210    30.9   1009.8    0.00 
 264    0:40   0.00   62.7    80   25.8   209    33.3   1010.2    0.00 
 264    0:50   0.00   62.8    80   28.5   212    36.9   1009.8    0.00 
 264    1:00   0.00   62.7    80   31.3   213    39.3   1009.1    0.00 
 264    1:10   0.00   62.8    80   32.5   215    40.7   1008.8    0.00 
 264    1:20   0.00   62.3    84   27.9   216    35.0   1009.1    0.00 
 264    1:30   0.00   62.3    83   28.1   218    36.9   1009.1    0.00 
 264    1:40   0.00   62.3    82   25.2   219    32.5   1009.5    0.00 
 264    1:50   0.00   62.5    82   26.4   218    32.9   1009.1    0.00 
 264    2:00   0.00   62.7    82   27.6   220    36.2   1009.1    0.00 
 264    2:10   0.00   62.5    82   29.7   220    36.3   1008.8    0.00 
 264    2:20   0.00   62.2    82   28.4   220    35.4   1008.8    0.00 
 264    2:30   0.00   62.2    83   27.3   219    36.1   1008.8    0.00 
 264    2:40   0.00   62.0    83   27.1   219    33.2   1009.1    0.00 
 264    2:50   0.00   61.8    84   25.4   218    32.2   1009.1    0.00 
 264    3:00   0.00   61.9    83   27.5   218    34.2   1009.1    0.00 

Return to Jepson Prairie Reserve graphs page.


Western Regional Climate Center,wrcc@dri.edu